createdAt,value
2023-08-15T00:02:58.455Z,5.05
2023-08-15T00:08:00.030Z,5.32
2023-08-15T00:13:01.487Z,5.60
2023-08-15T00:18:03.123Z,4.65
2023-08-15T00:23:04.884Z,5.28
2023-08-15T00:28:06.677Z,5.60
2023-08-15T00:33:08.199Z,6.32
2023-08-15T00:38:09.715Z,5.85
2023-08-15T00:43:11.232Z,5.18
2023-08-15T00:48:13.053Z,5.82
2023-08-15T00:53:17.748Z,6.18
2023-08-15T00:58:19.268Z,6.40
2023-08-15T01:03:21.136Z,5.90
2023-08-15T01:08:22.661Z,5.60
2023-08-15T01:13:40.368Z,5.68
2023-08-15T01:19:06.901Z,5.72
2023-08-15T01:24:08.830Z,5.65
2023-08-15T01:29:10.264Z,6.13
2023-08-15T01:34:13.477Z,5.75
2023-08-15T01:39:23.111Z,5.20
2023-08-15T01:44:26.055Z,5.65
2023-08-15T01:49:27.509Z,5.53
2023-08-15T01:54:29.429Z,5.43
2023-08-15T01:59:32.234Z,5.20
2023-08-15T02:04:34.291Z,5.57
2023-08-15T02:09:35.792Z,5.75
2023-08-15T02:14:37.303Z,6.15
2023-08-15T02:19:38.773Z,6.25
2023-08-15T02:24:40.226Z,6.07
2023-08-15T02:29:41.723Z,6.43
2023-08-15T02:34:43.169Z,5.68
2023-08-15T02:39:44.635Z,5.70
2023-08-15T02:44:46.913Z,6.40
2023-08-15T02:49:48.379Z,6.38
2023-08-15T02:54:49.830Z,5.68
2023-08-15T02:59:51.320Z,6.30
2023-08-15T03:04:52.791Z,6.20
2023-08-15T03:09:54.338Z,6.07
2023-08-15T03:14:57.187Z,5.80
2023-08-15T03:19:59.677Z,6.38
2023-08-15T03:25:01.257Z,6.07
2023-08-15T03:30:02.908Z,7.22
2023-08-15T03:35:05.371Z,7.10
2023-08-15T03:40:07.684Z,7.15
2023-08-15T03:45:09.475Z,6.50
2023-08-15T03:50:10.945Z,6.95
2023-08-15T03:55:12.414Z,7.20
2023-08-15T04:00:14.237Z,6.75
2023-08-15T04:05:15.888Z,6.28
2023-08-15T04:10:17.399Z,6.55
2023-08-15T04:15:19.341Z,7.18
2023-08-15T04:20:20.797Z,6.60
2023-08-15T04:25:22.273Z,6.70
2023-08-15T04:30:23.789Z,7.13
2023-08-15T04:35:26.090Z,8.23
2023-08-15T04:40:36.928Z,8.70
2023-08-15T04:45:38.550Z,8.38
2023-08-15T04:50:40.629Z,9.15
2023-08-15T04:55:42.199Z,9.27
2023-08-15T05:00:43.687Z,8.95
2023-08-15T05:05:45.231Z,10.32
2023-08-15T05:10:46.818Z,9.60
2023-08-15T05:15:48.348Z,9.18
2023-08-15T05:20:49.966Z,9.10
2023-08-15T05:25:51.668Z,9.00
2023-08-15T05:30:53.344Z,9.35
2023-08-15T05:35:55.409Z,8.52
2023-08-15T05:40:57.534Z,9.18
2023-08-15T05:45:58.982Z,9.15
2023-08-15T05:51:00.490Z,9.98
2023-08-15T05:56:01.968Z,10.05
2023-08-15T06:01:03.479Z,9.60
2023-08-15T06:06:05.040Z,9.02
2023-08-15T06:11:06.963Z,8.48
2023-08-15T06:16:08.416Z,9.77
2023-08-15T06:21:10.111Z,8.05
2023-08-15T06:26:11.581Z,7.90
2023-08-15T06:31:13.067Z,8.48
2023-08-15T06:36:14.545Z,8.18
2023-08-15T06:41:16.124Z,7.72
2023-08-15T06:46:17.658Z,6.95
2023-08-15T06:51:19.202Z,7.57
2023-08-15T06:56:21.771Z,7.18
2023-08-15T07:01:23.293Z,7.25
2023-08-15T07:06:24.915Z,7.68
2023-08-15T07:11:26.449Z,7.70
2023-08-15T07:16:27.945Z,7.60
2023-08-15T07:21:29.420Z,8.02
2023-08-15T07:26:30.868Z,7.97
2023-08-15T07:31:32.476Z,8.55
2023-08-15T07:36:33.956Z,8.40
2023-08-15T07:41:35.440Z,8.05
2023-08-15T07:46:36.891Z,7.93
2023-08-15T07:51:38.355Z,7.55
2023-08-15T07:56:39.846Z,7.18
2023-08-15T08:01:41.386Z,7.72
2023-08-15T08:06:42.884Z,7.78
2023-08-15T08:11:44.374Z,8.13
2023-08-15T08:16:45.841Z,7.93
2023-08-15T08:21:47.319Z,8.20
2023-08-15T08:26:48.782Z,8.88
2023-08-15T08:31:50.483Z,8.60
2023-08-15T08:36:51.942Z,8.15
2023-08-15T08:41:53.469Z,8.45
2023-08-15T08:46:55.564Z,8.57
2023-08-15T08:51:57.383Z,7.97
2023-08-15T08:57:01.400Z,8.18
2023-08-15T09:02:03.529Z,7.55
2023-08-15T09:07:05.001Z,7.47
2023-08-15T09:12:06.619Z,6.93
2023-08-15T09:17:11.072Z,6.35
2023-08-15T09:22:22.040Z,6.43
2023-08-15T09:27:24.287Z,6.50
2023-08-15T09:32:25.829Z,7.30
2023-08-15T09:37:27.533Z,7.22
2023-08-15T09:42:29.043Z,6.28
2023-08-15T09:47:30.569Z,7.10
2023-08-15T09:52:32.102Z,7.97
2023-08-15T09:57:33.602Z,7.63
2023-08-15T10:02:36.088Z,7.22
2023-08-15T10:07:38.634Z,6.80
2023-08-15T10:12:42.177Z,7.95
2023-08-15T10:17:44.007Z,6.97
2023-08-15T10:22:45.508Z,6.57
2023-08-15T10:27:49.482Z,6.90
2023-08-15T10:32:51.089Z,6.77
2023-08-15T10:37:52.582Z,6.55
2023-08-15T10:43:03.288Z,6.75
2023-08-15T10:48:06.393Z,7.72
2023-08-15T10:53:07.958Z,9.05
2023-08-15T10:58:11.429Z,8.48
2023-08-15T11:03:13.015Z,12.23
2023-08-15T11:08:19.930Z,12.20
2023-08-15T11:13:21.358Z,13.15
2023-08-15T11:18:22.920Z,12.48
2023-08-15T11:23:24.498Z,14.35
2023-08-15T11:28:27.340Z,12.90
2023-08-15T11:33:32.067Z,11.73
2023-08-15T11:38:35.720Z,12.65
2023-08-15T11:43:37.259Z,10.60
2023-08-15T11:48:38.769Z,11.60
2023-08-15T11:53:49.836Z,8.88
2023-08-15T11:58:51.388Z,9.57
2023-08-15T12:03:53.658Z,9.43
2023-08-15T12:08:55.195Z,8.23
2023-08-15T12:13:56.696Z,8.05
2023-08-15T12:18:58.617Z,7.32
2023-08-15T12:24:00.087Z,6.60
2023-08-15T12:29:01.581Z,5.85
2023-08-15T12:34:03.195Z,4.28
2023-08-15T12:39:04.911Z,3.60
2023-08-15T12:44:06.405Z,4.05
2023-08-15T12:49:07.843Z,4.05
2023-08-15T12:54:09.330Z,4.20
2023-08-15T12:59:10.967Z,3.20
2023-08-15T13:04:12.470Z,3.00
2023-08-15T13:09:13.939Z,3.03
2023-08-15T13:14:15.434Z,3.10
2023-08-15T13:19:16.918Z,3.40
2023-08-15T13:24:18.511Z,3.00
2023-08-15T13:29:20.242Z,2.70
2023-08-15T13:34:21.679Z,2.35
2023-08-15T13:39:23.331Z,2.20
2023-08-15T13:44:24.828Z,2.38
2023-08-15T13:49:26.262Z,2.83
2023-08-15T13:54:27.777Z,2.45
2023-08-15T13:59:29.277Z,1.75
2023-08-15T14:04:30.717Z,2.38
2023-08-15T14:09:32.194Z,2.50
2023-08-15T14:14:33.725Z,1.83
2023-08-15T14:19:35.194Z,1.98
2023-08-15T14:24:36.664Z,1.50
2023-08-15T14:29:38.106Z,1.60
2023-08-15T14:34:39.560Z,1.42
2023-08-15T14:39:41.276Z,2.63
2023-08-15T14:44:42.785Z,1.73
2023-08-15T14:49:44.300Z,1.52
2023-08-15T14:54:45.749Z,1.83
2023-08-15T14:59:47.545Z,1.60
2023-08-15T15:04:49.046Z,1.98
2023-08-15T15:09:50.590Z,2.15
2023-08-15T15:14:52.069Z,2.10
2023-08-15T15:19:53.550Z,1.95
2023-08-15T15:24:55.050Z,2.40
2023-08-15T15:29:56.533Z,2.30
2023-08-15T15:34:57.976Z,1.67
2023-08-15T15:40:00.886Z,1.30
2023-08-15T15:45:02.469Z,1.10
2023-08-15T15:50:04.118Z,1.30
2023-08-15T15:55:07.495Z,1.80
2023-08-15T16:05:12.595Z,2.13
2023-08-15T16:10:14.201Z,2.40
2023-08-15T16:15:15.741Z,2.05
2023-08-15T16:20:17.231Z,2.15
2023-08-15T16:25:18.776Z,1.80
2023-08-15T16:30:20.373Z,1.80
2023-08-15T16:35:21.966Z,1.92
2023-08-15T16:40:23.668Z,1.90
2023-08-15T16:45:25.121Z,1.90
2023-08-15T16:50:26.637Z,2.15
2023-08-15T16:55:28.780Z,2.17
2023-08-15T17:00:30.768Z,2.10
2023-08-15T17:05:32.264Z,1.50
2023-08-15T17:10:33.862Z,1.75
2023-08-15T17:15:35.431Z,1.48
2023-08-15T17:20:37.435Z,2.13
2023-08-15T17:25:38.956Z,1.70
2023-08-15T17:30:40.474Z,1.50
2023-08-15T17:35:43.705Z,1.65
2023-08-15T17:40:45.317Z,1.85
2023-08-15T17:45:46.886Z,1.60
2023-08-15T17:50:48.665Z,1.58
2023-08-15T17:55:50.171Z,2.13
2023-08-15T18:00:51.733Z,1.90
2023-08-15T18:05:53.207Z,1.35
2023-08-15T18:10:54.736Z,1.77
2023-08-15T18:15:56.305Z,2.22
2023-08-15T18:20:57.873Z,1.70
2023-08-15T18:25:59.668Z,1.52
2023-08-15T18:31:01.191Z,1.90
2023-08-15T18:36:02.769Z,2.20
2023-08-15T18:41:04.377Z,1.65
2023-08-15T18:46:05.893Z,1.65
2023-08-15T18:51:07.601Z,1.70
2023-08-15T18:56:09.075Z,1.70
2023-08-15T19:01:10.595Z,1.85
2023-08-15T19:06:12.168Z,1.83
2023-08-15T19:11:13.656Z,1.80
2023-08-15T19:16:15.144Z,3.40
2023-08-15T19:21:16.667Z,1.90
2023-08-15T19:26:18.164Z,2.42
2023-08-15T19:31:19.650Z,7.28
2023-08-15T19:36:21.185Z,4.55
2023-08-15T19:41:22.711Z,3.92
2023-08-15T19:46:24.198Z,4.90
2023-08-15T19:51:25.804Z,5.43
2023-08-15T19:56:27.323Z,4.30
2023-08-15T20:01:28.883Z,5.88
2023-08-15T20:06:30.392Z,1.80
2023-08-15T20:11:31.859Z,1.60
2023-08-15T20:16:33.462Z,1.77
2023-08-15T20:21:34.976Z,2.67
2023-08-15T20:26:36.455Z,1.80
2023-08-15T20:31:38.013Z,1.60
2023-08-15T20:36:39.513Z,1.70
2023-08-15T20:41:41.022Z,1.60
2023-08-15T20:46:42.550Z,1.98
2023-08-15T20:51:44.169Z,1.70
2023-08-15T20:56:45.665Z,1.70
2023-08-15T21:01:47.148Z,2.38
2023-08-15T21:06:48.857Z,2.03
2023-08-15T21:11:50.340Z,2.00
2023-08-15T21:16:52.296Z,2.10
2023-08-15T21:21:53.887Z,2.30
2023-08-15T21:26:55.915Z,2.25
2023-08-15T21:31:57.419Z,2.90
2023-08-15T21:36:58.922Z,2.72
2023-08-15T21:42:00.474Z,2.65
2023-08-15T21:47:01.933Z,2.20
2023-08-15T21:52:03.556Z,1.98
2023-08-15T21:57:05.710Z,2.50
2023-08-15T22:02:07.188Z,2.80
2023-08-15T22:07:08.799Z,2.22
2023-08-15T22:12:12.437Z,2.55
2023-08-15T22:17:13.966Z,2.75
2023-08-15T22:22:15.522Z,2.72
2023-08-15T22:27:17.090Z,2.58
2023-08-15T22:32:18.578Z,2.85
2023-08-15T22:37:20.303Z,2.75
2023-08-15T22:42:21.970Z,2.28
2023-08-15T22:47:23.739Z,1.90
2023-08-15T22:52:25.558Z,1.98
2023-08-15T22:57:27.012Z,1.90
2023-08-15T23:02:28.471Z,2.00
2023-08-15T23:07:30.025Z,2.08
2023-08-15T23:12:31.619Z,2.10
2023-08-15T23:17:33.139Z,2.90
2023-08-15T23:22:34.710Z,2.13
2023-08-15T23:27:36.346Z,2.00
2023-08-15T23:32:37.869Z,2.22
2023-08-15T23:37:39.353Z,2.92
2023-08-15T23:42:41.620Z,2.42
2023-08-15T23:47:43.220Z,2.05
2023-08-15T23:52:44.820Z,2.17
2023-08-15T23:57:46.317Z,1.85
